createdAt,value
2022-10-13T00:00:43.343Z,77.48
2022-10-13T00:03:10.683Z,77.04
2022-10-13T00:05:43.122Z,77.86
2022-10-13T00:08:12.598Z,77.54
2022-10-13T00:10:45.133Z,77.50
2022-10-13T00:13:16.643Z,77.47
2022-10-13T00:15:45.391Z,76.84
2022-10-13T00:18:13.376Z,77.59
2022-10-13T00:20:50.874Z,77.65
2022-10-13T00:23:18.790Z,77.69
2022-10-13T00:25:48.257Z,77.45
2022-10-13T00:28:18.510Z,77.70
2022-10-13T00:30:46.565Z,77.84
2022-10-13T00:33:14.438Z,77.75
2022-10-13T00:35:46.889Z,77.67
2022-10-13T00:38:14.761Z,78.01
2022-10-13T00:40:53.041Z,78.48
2022-10-13T00:43:28.070Z,77.85
2022-10-13T00:45:55.145Z,77.77
2022-10-13T00:48:25.203Z,78.20
2022-10-13T00:50:53.135Z,77.55
2022-10-13T00:53:23.573Z,78.04
2022-10-13T00:55:51.732Z,78.16
2022-10-13T00:58:19.788Z,78.59
2022-10-13T01:00:49.373Z,78.99
2022-10-13T01:03:18.684Z,78.91
2022-10-13T01:05:45.997Z,78.22
2022-10-13T01:08:15.010Z,78.68
2022-10-13T01:10:55.783Z,78.78
2022-10-13T01:13:25.881Z,78.65
2022-10-13T01:16:17.209Z,78.91
2022-10-13T01:18:51.436Z,78.87
2022-10-13T01:21:36.573Z,78.64
2022-10-13T01:24:34.652Z,78.30
2022-10-13T01:27:07.761Z,78.24
2022-10-13T01:30:04.882Z,78.20
2022-10-13T01:32:53.213Z,78.50
2022-10-13T01:35:38.024Z,78.53
2022-10-13T01:38:25.561Z,79.03
2022-10-13T01:41:02.598Z,78.99
2022-10-13T01:43:37.572Z,79.51
2022-10-13T01:46:12.534Z,79.70
2022-10-13T01:48:40.816Z,79.51
2022-10-13T01:51:10.507Z,79.71
2022-10-13T01:53:38.024Z,79.78
2022-10-13T01:56:05.504Z,79.68
2022-10-13T01:58:34.518Z,79.66
2022-10-13T02:01:20.451Z,79.54
2022-10-13T02:04:03.132Z,79.47
2022-10-13T02:06:39.990Z,79.33
2022-10-13T02:09:27.351Z,79.41
2022-10-13T02:11:59.763Z,79.63
2022-10-13T02:14:29.975Z,79.74
2022-10-13T02:17:01.301Z,79.75
2022-10-13T02:19:28.823Z,79.65
2022-10-13T02:21:57.559Z,79.46
2022-10-13T02:24:25.015Z,79.58
2022-10-13T02:26:55.857Z,79.58
2022-10-13T02:29:23.156Z,79.41
2022-10-13T02:31:50.345Z,79.99
2022-10-13T02:34:17.466Z,79.99
2022-10-13T02:36:44.512Z,79.63
2022-10-13T02:39:11.952Z,79.73
2022-10-13T02:41:39.371Z,79.77
2022-10-13T02:44:06.695Z,79.67
2022-10-13T02:46:33.925Z,79.82
2022-10-13T02:49:00.979Z,79.33
2022-10-13T02:51:28.095Z,79.41
2022-10-13T02:53:55.232Z,79.46
2022-10-13T02:56:22.268Z,79.55
2022-10-13T02:58:49.437Z,79.95
2022-10-13T03:01:16.501Z,80.13
2022-10-13T03:03:43.605Z,80.09
2022-10-13T03:06:10.796Z,80.01
2022-10-13T03:08:39.197Z,79.81
2022-10-13T03:11:06.561Z,80.07
2022-10-13T03:13:33.707Z,79.65
2022-10-13T03:16:00.842Z,79.31
2022-10-13T03:18:28.018Z,79.40
2022-10-13T03:21:03.618Z,80.11
2022-10-13T03:23:34.047Z,79.75
2022-10-13T03:26:01.713Z,79.95
2022-10-13T03:28:28.933Z,79.74
2022-10-13T03:31:07.675Z,80.06
2022-10-13T03:33:35.219Z,80.10
2022-10-13T03:36:04.473Z,79.53
2022-10-13T03:38:33.674Z,79.67
2022-10-13T03:41:21.149Z,79.69
2022-10-13T03:43:48.252Z,79.69
2022-10-13T03:46:17.369Z,79.85
2022-10-13T03:48:44.990Z,79.33
2022-10-13T03:51:14.830Z,79.79
2022-10-13T03:53:41.997Z,79.82
2022-10-13T03:56:14.145Z,79.93
2022-10-13T03:58:41.401Z,80.53
2022-10-13T04:01:08.465Z,80.14
2022-10-13T04:03:35.701Z,79.78
2022-10-13T04:06:04.359Z,80.06
2022-10-13T04:08:33.227Z,80.12
2022-10-13T04:11:01.634Z,80.46
2022-10-13T04:13:28.899Z,80.17
2022-10-13T04:15:56.132Z,80.59
2022-10-13T04:18:23.223Z,80.58
2022-10-13T04:20:50.544Z,80.24
2022-10-13T04:23:17.608Z,80.43
2022-10-13T04:25:44.852Z,80.39
2022-10-13T04:28:12.644Z,80.61
2022-10-13T04:30:39.728Z,80.61
2022-10-13T04:33:07.288Z,80.48
2022-10-13T04:35:34.577Z,80.64
2022-10-13T04:38:01.690Z,80.37
2022-10-13T04:40:28.723Z,80.40
2022-10-13T04:42:55.997Z,80.27
2022-10-13T04:45:23.138Z,80.53
2022-10-13T04:47:50.657Z,80.56
2022-10-13T04:50:17.929Z,80.37
2022-10-13T04:52:45.076Z,80.38
2022-10-13T04:55:12.176Z,80.33
2022-10-13T04:57:39.279Z,80.77
2022-10-13T05:00:07.303Z,80.72
2022-10-13T05:02:37.741Z,80.34
2022-10-13T05:05:05.444Z,80.15
2022-10-13T05:07:32.555Z,80.67
2022-10-13T05:09:59.743Z,80.49
2022-10-13T05:12:26.888Z,80.36
2022-10-13T05:14:54.103Z,80.75
2022-10-13T05:17:21.151Z,80.31
2022-10-13T05:19:49.490Z,80.23
2022-10-13T05:22:17.060Z,80.11
2022-10-13T05:24:44.683Z,80.28
2022-10-13T05:27:13.181Z,80.56
2022-10-13T05:29:40.634Z,80.67
2022-10-13T05:32:08.281Z,80.73
2022-10-13T05:34:35.421Z,80.91
2022-10-13T05:37:02.645Z,80.95
2022-10-13T05:39:29.779Z,80.96
2022-10-13T05:41:56.938Z,80.89
2022-10-13T05:44:24.629Z,80.71
2022-10-13T05:46:53.130Z,80.85
2022-10-13T05:49:20.274Z,80.56
2022-10-13T05:51:49.884Z,80.91
2022-10-13T05:54:24.391Z,80.89
2022-10-13T05:56:57.824Z,81.13
2022-10-13T05:59:27.252Z,80.68
2022-10-13T06:01:54.631Z,80.84
2022-10-13T06:04:28.683Z,81.36
2022-10-13T06:06:55.827Z,81.74
2022-10-13T06:09:23.163Z,81.77
2022-10-13T06:11:50.208Z,81.67
2022-10-13T06:14:17.243Z,81.89
2022-10-13T06:16:44.279Z,81.76
2022-10-13T06:19:11.526Z,81.26
2022-10-13T06:21:38.637Z,81.23
2022-10-13T06:24:06.050Z,81.42
2022-10-13T06:26:33.105Z,81.50
2022-10-13T06:29:00.446Z,81.52
2022-10-13T06:31:27.675Z,81.25
2022-10-13T06:33:54.913Z,80.93
2022-10-13T06:36:22.486Z,80.86
2022-10-13T06:38:49.626Z,80.66
2022-10-13T06:41:16.722Z,80.61
2022-10-13T06:43:44.030Z,81.04
2022-10-13T06:46:12.129Z,81.32
2022-10-13T06:48:39.390Z,81.65
2022-10-13T06:51:09.022Z,81.63
2022-10-13T06:53:36.691Z,81.76
2022-10-13T06:56:06.269Z,81.49
2022-10-13T06:58:34.742Z,81.46
2022-10-13T07:01:02.114Z,81.52
2022-10-13T07:03:29.260Z,81.72
2022-10-13T07:06:04.281Z,81.74
2022-10-13T07:08:32.495Z,81.92
2022-10-13T07:10:59.775Z,81.59
2022-10-13T07:13:27.358Z,81.84
2022-10-13T07:15:54.670Z,81.71
2022-10-13T07:18:21.727Z,81.92
2022-10-13T07:20:48.999Z,81.88
2022-10-13T07:23:16.080Z,82.02
2022-10-13T07:25:43.173Z,81.81
2022-10-13T07:28:10.276Z,81.62
2022-10-13T07:30:39.432Z,81.54
2022-10-13T07:33:06.664Z,81.60
2022-10-13T07:35:33.813Z,81.71
2022-10-13T07:38:00.846Z,81.79
2022-10-13T07:40:27.923Z,81.92
2022-10-13T07:42:56.682Z,81.92
2022-10-13T07:45:23.756Z,81.97
2022-10-13T07:47:51.156Z,81.64
2022-10-13T07:50:18.307Z,80.90
2022-10-13T07:52:46.092Z,80.82
2022-10-13T07:55:13.178Z,79.64
2022-10-13T07:57:40.431Z,79.23
2022-10-13T08:00:08.498Z,78.85
2022-10-13T08:02:35.601Z,78.39
2022-10-13T08:05:03.669Z,78.24
2022-10-13T08:07:30.707Z,77.72
2022-10-13T08:09:58.150Z,77.16
2022-10-13T08:12:25.249Z,77.24
2022-10-13T08:14:52.305Z,76.31
2022-10-13T08:17:19.578Z,76.79
2022-10-13T08:19:47.197Z,76.03
2022-10-13T08:22:14.392Z,75.99
2022-10-13T08:24:41.582Z,75.11
2022-10-13T08:27:20.049Z,75.66
2022-10-13T08:29:47.326Z,75.10
2022-10-13T08:32:14.397Z,74.04
2022-10-13T08:34:41.663Z,74.42
2022-10-13T08:37:14.636Z,73.96
2022-10-13T08:39:41.695Z,71.74
2022-10-13T08:42:18.597Z,71.02
2022-10-13T08:45:21.860Z,70.89
2022-10-13T08:47:44.529Z,69.00
2022-10-13T08:50:15.721Z,70.18
2022-10-13T08:53:05.612Z,69.00
2022-10-13T08:55:41.770Z,69.30
2022-10-13T08:58:15.084Z,68.79
2022-10-13T09:00:42.511Z,68.57
2022-10-13T09:03:28.003Z,68.34
2022-10-13T09:06:10.393Z,68.01
2022-10-13T09:08:44.851Z,68.14
2022-10-13T09:11:13.118Z,68.86
2022-10-13T09:13:40.504Z,68.43
2022-10-13T09:16:08.112Z,68.11
2022-10-13T09:18:35.654Z,68.16
2022-10-13T09:21:20.276Z,66.61
2022-10-13T09:23:54.182Z,67.56
2022-10-13T09:26:24.099Z,66.82
2022-10-13T09:28:51.883Z,66.38
2022-10-13T09:31:24.776Z,66.86
2022-10-13T09:33:59.359Z,65.95
2022-10-13T09:36:26.540Z,66.34
2022-10-13T09:39:11.759Z,65.91
2022-10-13T09:41:39.939Z,66.10
2022-10-13T09:44:12.754Z,65.56
2022-10-13T09:46:50.720Z,65.21
2022-10-13T09:49:39.578Z,64.62
2022-10-13T09:52:07.040Z,63.42
2022-10-13T09:54:39.015Z,63.75
2022-10-13T09:57:14.326Z,64.20
2022-10-13T09:59:46.314Z,62.88
2022-10-13T10:02:34.130Z,62.59
2022-10-13T10:05:07.105Z,63.66
2022-10-13T10:07:34.301Z,63.91
2022-10-13T10:10:06.651Z,64.43
2022-10-13T10:12:36.957Z,64.33
2022-10-13T10:15:16.967Z,64.44
2022-10-13T10:17:51.998Z,64.06
2022-10-13T10:20:37.651Z,64.29
2022-10-13T10:23:06.597Z,64.65
2022-10-13T10:25:47.293Z,64.03
2022-10-13T10:28:25.294Z,64.30
2022-10-13T10:31:02.905Z,63.78
2022-10-13T10:33:55.532Z,63.18
2022-10-13T10:36:29.686Z,63.26
2022-10-13T10:39:03.663Z,62.80
2022-10-13T10:41:39.013Z,62.84
2022-10-13T10:44:31.474Z,63.19
2022-10-13T10:47:05.708Z,62.49
2022-10-13T10:49:35.304Z,63.24
2022-10-13T10:52:19.591Z,63.42
2022-10-13T10:54:56.682Z,63.24
2022-10-13T10:57:35.798Z,63.29
2022-10-13T11:00:06.560Z,63.57
2022-10-13T11:02:37.318Z,63.07
2022-10-13T11:05:06.416Z,63.86
2022-10-13T11:07:33.699Z,63.92
2022-10-13T11:10:14.224Z,64.33
2022-10-13T11:12:53.756Z,64.07
2022-10-13T11:15:25.596Z,63.92
2022-10-13T11:17:52.897Z,64.16
2022-10-13T11:20:25.125Z,63.71
2022-10-13T11:22:58.094Z,63.44
2022-10-13T11:25:41.522Z,63.80
2022-10-13T11:28:20.734Z,63.76
2022-10-13T11:30:50.393Z,63.65
2022-10-13T11:33:32.651Z,64.07
2022-10-13T11:36:39.415Z,63.85
2022-10-13T11:39:28.109Z,63.44
2022-10-13T11:42:20.322Z,64.10
2022-10-13T11:45:12.076Z,63.35
2022-10-13T11:48:21.300Z,63.08
2022-10-13T11:50:58.704Z,62.92
2022-10-13T11:53:35.036Z,63.23
2022-10-13T11:56:02.192Z,62.90
2022-10-13T11:58:31.175Z,62.43
2022-10-13T12:01:00.506Z,62.70
2022-10-13T12:03:27.757Z,62.51
2022-10-13T12:05:59.144Z,62.99
2022-10-13T12:08:27.509Z,62.89
2022-10-13T12:10:57.316Z,63.24
2022-10-13T12:13:27.703Z,63.22
2022-10-13T12:16:13.559Z,63.23
2022-10-13T12:18:41.123Z,63.41
2022-10-13T12:21:17.910Z,63.39
2022-10-13T12:23:45.226Z,63.78
2022-10-13T12:26:16.915Z,64.01
2022-10-13T12:28:49.213Z,64.00
2022-10-13T12:31:22.429Z,64.10
2022-10-13T12:34:00.974Z,64.32
2022-10-13T12:36:31.099Z,64.51
2022-10-13T12:39:04.408Z,64.76
2022-10-13T12:41:41.255Z,64.66
2022-10-13T12:44:13.552Z,64.26
2022-10-13T12:46:49.023Z,64.95
2022-10-13T12:49:30.309Z,64.73
2022-10-13T12:52:09.609Z,65.27
2022-10-13T12:54:39.087Z,65.01
2022-10-13T12:57:17.878Z,64.51
2022-10-13T12:59:45.015Z,64.88
2022-10-13T13:02:26.332Z,64.31
2022-10-13T13:04:53.929Z,64.65
2022-10-13T13:07:35.583Z,64.65
2022-10-13T13:10:18.797Z,63.39
2022-10-13T13:12:47.676Z,64.12
2022-10-13T13:15:27.243Z,63.97
2022-10-13T13:17:59.042Z,63.50
2022-10-13T13:20:32.189Z,63.51
2022-10-13T13:22:59.875Z,63.36
2022-10-13T13:25:27.155Z,63.83
2022-10-13T13:27:54.396Z,63.04
2022-10-13T13:30:23.631Z,63.04
2022-10-13T13:32:51.146Z,62.97
2022-10-13T13:35:18.601Z,63.23
2022-10-13T13:37:48.881Z,63.34
2022-10-13T13:40:18.667Z,63.70
2022-10-13T13:42:45.787Z,63.68
2022-10-13T13:45:13.978Z,63.77
2022-10-13T13:47:41.092Z,63.67
2022-10-13T13:50:17.075Z,63.67
2022-10-13T13:52:44.250Z,64.19
2022-10-13T13:55:11.391Z,63.90
2022-10-13T13:57:38.420Z,63.66
2022-10-13T14:00:06.254Z,63.75
2022-10-13T14:02:33.339Z,64.14
2022-10-13T14:05:00.548Z,64.62
2022-10-13T14:07:27.610Z,64.75
2022-10-13T14:09:57.859Z,64.73
2022-10-13T14:12:32.506Z,64.83
2022-10-13T14:14:59.827Z,64.87
2022-10-13T14:17:28.055Z,64.83
2022-10-13T14:19:56.406Z,64.82
2022-10-13T14:22:23.777Z,64.78
2022-10-13T14:24:50.945Z,64.99
2022-10-13T14:27:18.129Z,64.89
2022-10-13T14:29:45.228Z,65.29
2022-10-13T14:32:12.634Z,65.63
2022-10-13T14:34:39.704Z,65.56
2022-10-13T14:37:06.809Z,65.75
2022-10-13T14:39:33.918Z,65.57
2022-10-13T14:42:01.201Z,65.95
2022-10-13T14:44:28.316Z,66.14
2022-10-13T14:46:55.553Z,66.27
2022-10-13T14:49:22.600Z,66.79
2022-10-13T14:51:49.752Z,66.87
2022-10-13T14:54:16.877Z,66.96
2022-10-13T14:56:44.785Z,67.07
2022-10-13T14:59:12.522Z,66.99
2022-10-13T15:01:41.550Z,66.58
2022-10-13T15:04:09.074Z,66.48
2022-10-13T15:06:39.147Z,66.00
2022-10-13T15:11:39.483Z,65.97
2022-10-13T15:14:07.467Z,65.83
2022-10-13T15:16:35.037Z,65.74
2022-10-13T15:19:02.727Z,65.72
2022-10-13T15:21:29.943Z,65.99
2022-10-13T15:23:57.133Z,65.96
2022-10-13T15:26:24.504Z,65.90
2022-10-13T15:28:53.098Z,66.19
2022-10-13T15:31:21.660Z,66.24
2022-10-13T15:33:51.781Z,66.12
2022-10-13T15:36:20.101Z,66.15
2022-10-13T15:38:47.236Z,66.23
2022-10-13T15:41:14.493Z,66.56
2022-10-13T15:43:41.608Z,66.26
2022-10-13T15:46:12.318Z,66.59
2022-10-13T15:48:39.516Z,66.51
2022-10-13T15:51:14.485Z,66.08
2022-10-13T15:53:41.587Z,66.25
2022-10-13T15:56:08.843Z,66.39
2022-10-13T15:58:36.064Z,66.33
2022-10-13T16:01:11.064Z,66.57
2022-10-13T16:03:38.574Z,66.53
2022-10-13T16:06:07.583Z,66.54
2022-10-13T16:08:39.507Z,67.01
2022-10-13T16:11:11.022Z,67.00
2022-10-13T16:13:38.824Z,67.11
2022-10-13T16:16:06.609Z,67.26
2022-10-13T16:18:36.075Z,67.32
2022-10-13T16:21:18.599Z,67.35
2022-10-13T16:23:46.977Z,67.61
2022-10-13T16:26:14.859Z,67.87
2022-10-13T16:28:42.057Z,67.69
2022-10-13T16:31:13.541Z,68.37
2022-10-13T16:33:44.566Z,68.50
2022-10-13T16:36:13.910Z,68.40
2022-10-13T16:38:42.022Z,68.48
2022-10-13T16:41:14.151Z,68.79
2022-10-13T16:43:42.149Z,68.92
2022-10-13T16:46:13.223Z,69.16
2022-10-13T16:48:41.219Z,69.28
2022-10-13T16:51:10.521Z,69.74
2022-10-13T16:53:38.675Z,69.49
2022-10-13T16:56:07.074Z,70.10
2022-10-13T16:58:34.576Z,70.20
2022-10-13T17:01:06.185Z,70.33
2022-10-13T17:03:33.298Z,70.81
2022-10-13T17:06:00.625Z,71.18
2022-10-13T17:08:27.903Z,70.99
2022-10-13T17:10:58.215Z,71.30
2022-10-13T17:13:25.546Z,71.12
2022-10-13T17:15:54.186Z,71.32
2022-10-13T17:18:21.498Z,71.47
2022-10-13T17:21:04.243Z,71.58
2022-10-13T17:23:31.903Z,71.54
2022-10-13T17:26:04.336Z,71.93
2022-10-13T17:28:32.110Z,72.26
2022-10-13T17:31:01.098Z,72.33
2022-10-13T17:33:29.259Z,72.38
2022-10-13T17:36:00.988Z,72.26
2022-10-13T17:38:28.595Z,71.93
2022-10-13T17:41:00.330Z,72.38
2022-10-13T17:43:27.669Z,71.86
2022-10-13T17:46:07.443Z,72.10
2022-10-13T17:48:42.777Z,72.17
2022-10-13T17:51:12.105Z,72.33
2022-10-13T17:53:40.120Z,71.78
2022-10-13T17:56:11.634Z,71.68
2022-10-13T17:58:40.026Z,71.41
2022-10-13T18:01:13.545Z,71.65
2022-10-13T18:03:45.043Z,71.79
2022-10-13T18:06:12.292Z,71.50
2022-10-13T18:08:39.531Z,71.72
2022-10-13T18:11:15.698Z,71.70
2022-10-13T18:13:44.527Z,71.70
2022-10-13T18:16:22.539Z,71.64
2022-10-13T18:18:51.217Z,71.66
2022-10-13T18:21:22.388Z,71.53
2022-10-13T18:23:49.555Z,71.77
2022-10-13T18:26:18.862Z,71.59
2022-10-13T18:28:47.257Z,71.68
2022-10-13T18:31:17.072Z,71.68
2022-10-13T18:33:44.363Z,71.45
2022-10-13T18:36:20.062Z,71.81
2022-10-13T18:38:47.558Z,72.06
2022-10-13T18:41:16.129Z,71.92
2022-10-13T18:43:43.208Z,71.89
2022-10-13T18:46:10.312Z,71.79
2022-10-13T18:48:37.426Z,71.73
2022-10-13T18:51:06.751Z,71.79
2022-10-13T18:53:38.447Z,71.95
2022-10-13T18:56:08.398Z,72.07
2022-10-13T18:58:35.661Z,72.14
2022-10-13T19:01:05.980Z,72.15
2022-10-13T19:03:35.988Z,72.52
2022-10-13T19:06:05.381Z,72.44
2022-10-13T19:08:32.948Z,72.51
2022-10-13T19:11:00.233Z,72.65
2022-10-13T19:13:27.961Z,72.85
2022-10-13T19:16:01.848Z,73.04
2022-10-13T19:18:29.115Z,73.09
2022-10-13T19:20:56.255Z,73.46
2022-10-13T19:23:23.395Z,73.38
2022-10-13T19:25:50.512Z,73.28
2022-10-13T19:28:17.683Z,73.19
2022-10-13T19:30:44.926Z,73.58
2022-10-13T19:33:14.261Z,73.35
2022-10-13T19:35:43.182Z,73.62
2022-10-13T19:38:10.543Z,73.65
2022-10-13T19:40:42.538Z,73.91
2022-10-13T19:43:10.222Z,73.78
2022-10-13T19:45:44.082Z,73.81
2022-10-13T19:48:11.221Z,74.12
2022-10-13T19:50:38.302Z,74.10
2022-10-13T19:53:05.344Z,74.25
2022-10-13T19:55:37.993Z,74.24
2022-10-13T19:58:05.077Z,74.40
2022-10-13T20:00:32.535Z,74.72
2022-10-13T20:02:59.744Z,74.12
2022-10-13T20:05:27.139Z,74.24
2022-10-13T20:07:54.683Z,74.81
2022-10-13T20:10:22.013Z,74.78
2022-10-13T20:12:49.054Z,74.98
2022-10-13T20:15:28.815Z,75.23
2022-10-13T20:17:56.177Z,74.44
2022-10-13T20:20:23.330Z,74.73
2022-10-13T20:22:53.033Z,74.70
2022-10-13T20:25:20.181Z,74.44
2022-10-13T20:27:47.237Z,74.98
2022-10-13T20:30:14.433Z,74.51
2022-10-13T20:32:41.658Z,74.75
2022-10-13T20:35:08.832Z,74.62
2022-10-13T20:37:35.970Z,74.88
2022-10-13T20:40:12.790Z,74.75
2022-10-13T20:42:39.887Z,74.88
2022-10-13T20:45:07.427Z,74.99
2022-10-13T20:47:34.508Z,74.99
2022-10-13T20:50:01.615Z,74.95
2022-10-13T20:52:28.650Z,75.05
2022-10-13T20:54:55.698Z,74.66
2022-10-13T20:57:23.199Z,74.72
2022-10-13T20:59:50.426Z,75.31
2022-10-13T21:02:17.455Z,75.41
2022-10-13T21:04:44.538Z,74.92
2022-10-13T21:07:11.614Z,74.95
2022-10-13T21:09:38.738Z,75.23
2022-10-13T21:12:06.183Z,74.94
2022-10-13T21:14:33.244Z,75.25
2022-10-13T21:17:00.367Z,74.92
2022-10-13T21:19:29.273Z,75.33
2022-10-13T21:21:56.331Z,75.13
2022-10-13T21:24:23.361Z,75.39
2022-10-13T21:26:50.442Z,75.46
2022-10-13T21:29:17.532Z,75.37
2022-10-13T21:31:44.555Z,75.55
2022-10-13T21:34:12.319Z,75.80
2022-10-13T21:36:44.008Z,75.46
2022-10-13T21:39:11.267Z,75.60
2022-10-13T21:41:38.350Z,75.22
2022-10-13T21:44:05.415Z,75.35
2022-10-13T21:46:34.098Z,75.36
2022-10-13T21:49:03.002Z,75.46
2022-10-13T21:51:38.205Z,75.75
2022-10-13T21:54:07.767Z,75.60
2022-10-13T21:56:35.799Z,76.08
2022-10-13T21:59:03.754Z,76.01
2022-10-13T22:01:31.050Z,75.72
2022-10-13T22:03:59.648Z,76.07
2022-10-13T22:06:28.062Z,76.57
2022-10-13T22:08:56.638Z,76.71
2022-10-13T22:11:26.622Z,76.79
2022-10-13T22:13:56.036Z,76.90
2022-10-13T22:16:30.531Z,76.58
2022-10-13T22:18:58.069Z,76.60
2022-10-13T22:21:30.711Z,76.70
2022-10-13T22:23:59.908Z,77.29
2022-10-13T22:26:28.810Z,77.34
2022-10-13T22:28:59.725Z,77.32
2022-10-13T22:31:27.229Z,77.28
2022-10-13T22:33:54.852Z,77.58
2022-10-13T22:36:23.682Z,77.62
2022-10-13T22:38:52.271Z,77.51
2022-10-13T22:41:19.860Z,77.39
2022-10-13T22:43:52.236Z,77.43
2022-10-13T22:46:21.803Z,77.21
2022-10-13T22:48:48.967Z,76.98
2022-10-13T22:51:21.130Z,77.36
2022-10-13T22:53:49.024Z,77.19
2022-10-13T22:56:24.502Z,77.43
2022-10-13T22:58:53.237Z,77.32
2022-10-13T23:01:21.450Z,77.36
2022-10-13T23:03:50.341Z,77.41
2022-10-13T23:06:20.428Z,77.24
2022-10-13T23:08:47.713Z,77.59
2022-10-13T23:11:15.602Z,77.33
2022-10-13T23:13:43.602Z,77.46
2022-10-13T23:16:14.466Z,77.71
2022-10-13T23:18:41.743Z,77.55
2022-10-13T23:21:11.088Z,77.49
2022-10-13T23:23:38.185Z,77.96
2022-10-13T23:26:06.905Z,77.46
2022-10-13T23:28:34.475Z,77.24
2022-10-13T23:31:03.381Z,77.67
2022-10-13T23:33:30.625Z,77.46
2022-10-13T23:35:58.829Z,77.54
2022-10-13T23:38:26.836Z,77.89
2022-10-13T23:40:53.907Z,77.84
2022-10-13T23:43:21.319Z,78.67
2022-10-13T23:45:48.383Z,78.71
2022-10-13T23:48:15.470Z,78.69
2022-10-13T23:50:42.594Z,78.70
2022-10-13T23:53:09.968Z,79.04
2022-10-13T23:55:38.808Z,79.28
2022-10-13T23:58:05.964Z,79.00
